createdAt,value
2018-07-12T00:00:47.075Z,0.00
2018-07-12T00:01:47.069Z,0.00
2018-07-12T00:02:47.066Z,0.00
2018-07-12T00:03:47.064Z,0.00
2018-07-12T00:04:47.058Z,0.00
2018-07-12T00:05:47.057Z,0.00
2018-07-12T00:06:47.059Z,0.00
2018-07-12T00:07:47.046Z,0.00
2018-07-12T00:08:47.039Z,0.00
2018-07-12T00:09:47.035Z,0.00
2018-07-12T00:10:47.033Z,0.00
2018-07-12T00:11:47.031Z,0.00
2018-07-12T00:12:47.022Z,0.00
2018-07-12T00:13:47.021Z,0.00
2018-07-12T00:14:47.030Z,0.00
2018-07-12T00:15:47.016Z,0.00
2018-07-12T00:16:47.027Z,0.00
2018-07-12T00:17:47.000Z,0.00
2018-07-12T00:18:47.000Z,0.00
2018-07-12T00:19:46.991Z,0.00
2018-07-12T00:20:47.046Z,0.00
2018-07-12T00:21:47.015Z,0.00
2018-07-12T00:22:46.979Z,0.00
2018-07-12T00:23:47.000Z,0.00
2018-07-12T00:24:46.983Z,0.00
2018-07-12T00:25:46.972Z,0.00
2018-07-12T00:26:47.035Z,0.00
2018-07-12T00:27:46.962Z,0.00
2018-07-12T00:28:46.957Z,0.00
2018-07-12T00:29:46.954Z,0.00
2018-07-12T00:30:46.956Z,0.00
2018-07-12T00:31:46.977Z,0.00
2018-07-12T00:32:46.943Z,0.00
2018-07-12T00:33:47.015Z,0.00
2018-07-12T00:34:46.933Z,0.00
2018-07-12T00:35:46.930Z,0.00
2018-07-12T00:36:46.921Z,0.00
2018-07-12T00:37:46.937Z,0.00
2018-07-12T00:38:46.930Z,0.00
2018-07-12T00:39:46.913Z,0.00
2018-07-12T00:40:46.900Z,0.00
2018-07-12T00:41:46.911Z,0.00
2018-07-12T00:42:46.907Z,0.00
2018-07-12T00:43:46.895Z,0.00
2018-07-12T00:44:46.998Z,0.00
2018-07-12T00:45:46.918Z,0.00
2018-07-12T00:46:46.888Z,0.00
2018-07-12T00:47:46.878Z,0.00
2018-07-12T00:48:46.879Z,0.00
2018-07-12T00:49:46.870Z,0.00
2018-07-12T00:50:46.866Z,0.00
2018-07-12T00:51:46.861Z,0.00
2018-07-12T00:52:46.855Z,0.00
2018-07-12T00:53:46.855Z,0.00
2018-07-12T00:54:46.848Z,0.00
2018-07-12T00:55:47.070Z,0.00
2018-07-12T00:56:46.881Z,0.00
2018-07-12T00:57:46.841Z,0.00
2018-07-12T00:58:46.835Z,0.00
2018-07-12T00:59:46.832Z,0.00
2018-07-12T01:00:46.816Z,0.00
2018-07-12T01:01:46.907Z,0.00
2018-07-12T01:02:46.825Z,0.00
2018-07-12T01:03:46.820Z,0.00
2018-07-12T01:04:46.806Z,0.00
2018-07-12T01:05:46.803Z,0.00
2018-07-12T01:06:46.799Z,0.00
2018-07-12T01:07:46.796Z,0.00
2018-07-12T01:08:46.795Z,0.00
2018-07-12T01:09:46.777Z,0.00
2018-07-12T01:10:46.779Z,0.00
2018-07-12T01:11:46.781Z,0.00
2018-07-12T01:12:46.772Z,0.00
2018-07-12T01:13:46.758Z,0.00
2018-07-12T01:14:46.761Z,0.00
2018-07-12T01:15:46.767Z,0.00
2018-07-12T01:16:46.752Z,0.00
2018-07-12T01:17:46.771Z,0.00
2018-07-12T01:18:46.757Z,0.00
2018-07-12T01:19:46.741Z,0.00
2018-07-12T01:20:46.742Z,0.00
2018-07-12T01:21:46.739Z,0.00
2018-07-12T01:22:46.745Z,0.00
2018-07-12T01:23:46.724Z,0.00
2018-07-12T01:24:46.720Z,0.00
2018-07-12T01:25:46.716Z,0.00
2018-07-12T01:26:46.713Z,0.00
2018-07-12T01:27:46.712Z,0.00
2018-07-12T01:28:46.694Z,0.00
2018-07-12T01:29:46.692Z,0.00
2018-07-12T01:30:46.693Z,0.00
2018-07-12T02:04:28.132Z,0.00
2018-07-12T02:05:28.099Z,0.00
2018-07-12T02:07:21.015Z,0.00
2018-07-12T02:08:20.986Z,0.00
2018-07-12T02:10:13.884Z,0.00
2018-07-12T02:11:13.860Z,0.00
2018-07-12T02:13:06.786Z,0.00
2018-07-12T02:14:06.758Z,0.00
2018-07-12T02:15:59.742Z,0.00
2018-07-12T02:16:59.735Z,0.00
2018-07-12T02:18:53.157Z,0.00
2018-07-12T02:19:52.890Z,0.00
2018-07-12T02:20:52.884Z,0.00
2018-07-12T02:21:52.875Z,0.00
2018-07-12T02:22:52.872Z,0.00
2018-07-12T02:23:52.869Z,0.00
2018-07-12T02:24:52.863Z,0.00
2018-07-12T02:25:52.869Z,0.00
2018-07-12T02:26:52.850Z,0.00
2018-07-12T02:27:52.847Z,0.00
2018-07-12T02:28:52.845Z,0.00
2018-07-12T02:29:52.836Z,0.00
2018-07-12T02:30:52.838Z,0.00
2018-07-12T02:31:52.834Z,0.00
2018-07-12T02:32:52.829Z,0.00
2018-07-12T02:33:52.821Z,0.00
2018-07-12T02:34:52.812Z,0.00
2018-07-12T02:35:52.812Z,0.00
2018-07-12T02:36:52.805Z,0.00
2018-07-12T02:37:52.809Z,0.00
2018-07-12T02:38:52.798Z,0.00
2018-07-12T02:39:52.794Z,0.00
2018-07-12T02:40:52.788Z,0.00
2018-07-12T02:41:52.775Z,0.00
2018-07-12T02:42:52.778Z,0.00
2018-07-12T02:43:52.774Z,0.00
2018-07-12T02:44:52.771Z,0.00
2018-07-12T02:45:52.769Z,0.00
2018-07-12T02:46:52.757Z,0.00
2018-07-12T02:47:52.757Z,0.00
2018-07-12T02:48:52.755Z,0.00
2018-07-12T02:49:52.753Z,0.00
2018-07-12T02:50:52.760Z,0.00
2018-07-12T02:51:52.746Z,0.00
2018-07-12T02:52:52.734Z,0.00
2018-07-12T02:53:52.748Z,4.00
2018-07-12T02:54:52.763Z,4.00
2018-07-12T02:55:52.725Z,4.00
2018-07-12T02:56:52.716Z,0.00
2018-07-12T02:57:52.714Z,4.00
2018-07-12T02:58:52.712Z,4.00
2018-07-12T02:59:52.718Z,4.00
2018-07-12T03:00:52.697Z,4.00
2018-07-12T03:01:52.694Z,8.00
2018-07-12T03:02:52.697Z,8.00
2018-07-12T03:03:52.686Z,8.00
2018-07-12T03:04:52.677Z,8.00
2018-07-12T03:05:52.682Z,8.00
2018-07-12T03:06:52.848Z,12.00
2018-07-12T03:07:52.676Z,12.00
2018-07-12T03:08:52.668Z,16.00
2018-07-12T03:09:52.664Z,16.00
2018-07-12T03:10:52.658Z,20.00
2018-07-12T03:11:52.655Z,24.00
2018-07-12T03:12:52.648Z,24.00
2018-07-12T03:13:52.649Z,32.00
2018-07-12T03:14:52.661Z,32.00
2018-07-12T03:15:52.639Z,40.00
2018-07-12T03:16:52.642Z,44.00
2018-07-12T03:17:52.622Z,52.00
2018-07-12T03:18:52.621Z,56.00
2018-07-12T03:19:52.619Z,64.00
2018-07-12T03:20:52.719Z,76.00
2018-07-12T03:21:52.623Z,88.00
2018-07-12T03:22:52.607Z,96.00
2018-07-12T03:23:52.603Z,108.00
2018-07-12T03:24:52.597Z,120.00
2018-07-12T03:25:52.596Z,132.00
2018-07-12T03:26:52.593Z,152.00
2018-07-12T03:27:52.581Z,164.00
2018-07-12T03:28:52.582Z,184.00
2018-07-12T03:29:52.592Z,204.00
2018-07-12T03:30:52.573Z,224.00
2018-07-12T03:31:52.576Z,244.00
2018-07-12T03:32:52.570Z,268.00
2018-07-12T03:33:52.556Z,292.00
2018-07-12T03:34:52.550Z,320.00
2018-07-12T03:35:52.550Z,344.00
2018-07-12T03:36:52.544Z,372.00
2018-07-12T03:37:52.541Z,404.00
2018-07-12T03:38:52.532Z,432.00
2018-07-12T03:39:52.534Z,464.00
2018-07-12T03:40:52.528Z,500.00
2018-07-12T03:41:52.523Z,536.00
2018-07-12T03:42:52.522Z,580.00
2018-07-12T03:43:52.515Z,628.00
2018-07-12T03:44:52.551Z,676.00
2018-07-12T03:45:52.503Z,740.00
2018-07-12T03:46:52.503Z,796.00
2018-07-12T03:47:52.500Z,852.00
2018-07-12T03:48:52.481Z,908.00
2018-07-12T03:49:52.486Z,956.00
2018-07-12T03:50:52.489Z,1016.00
2018-07-12T03:51:52.476Z,1076.00
2018-07-12T03:52:52.480Z,1136.00
2018-07-12T03:53:52.485Z,1200.00
2018-07-12T03:54:52.465Z,1256.00
2018-07-12T03:55:52.460Z,1320.00
2018-07-12T03:56:52.466Z,1384.00
2018-07-12T03:57:52.456Z,1448.00
2018-07-12T03:58:52.443Z,1516.00
2018-07-12T03:59:52.446Z,1584.00
2018-07-12T04:00:52.448Z,1652.00
2018-07-12T04:01:52.465Z,1720.00
2018-07-12T04:02:52.457Z,1784.00
2018-07-12T04:03:52.430Z,1848.00
2018-07-12T04:04:52.433Z,1912.00
2018-07-12T04:05:52.415Z,1972.00
2018-07-12T04:06:52.420Z,2036.00
2018-07-12T04:07:52.415Z,2096.00
2018-07-12T04:08:52.413Z,2160.00
2018-07-12T04:09:52.409Z,2216.00
2018-07-12T04:10:52.456Z,2280.00
2018-07-12T04:11:52.400Z,2340.00
2018-07-12T04:12:52.417Z,2404.00
2018-07-12T04:13:52.481Z,2460.00
2018-07-12T04:14:52.389Z,2524.00
2018-07-12T04:15:52.404Z,2580.00
2018-07-12T04:16:52.386Z,2640.00
2018-07-12T04:17:52.379Z,2700.00
2018-07-12T04:18:52.368Z,2760.00
2018-07-12T04:19:52.364Z,2816.00
2018-07-12T04:20:52.386Z,2872.00
2018-07-12T04:21:52.361Z,2932.00
2018-07-12T04:22:52.383Z,2984.00
2018-07-12T04:23:52.358Z,3044.00
2018-07-12T04:24:52.353Z,3092.00
2018-07-12T04:25:52.349Z,3144.00
2018-07-12T04:26:52.343Z,3196.00
2018-07-12T04:27:52.336Z,3256.00
2018-07-12T04:28:52.327Z,3308.00
2018-07-12T04:29:52.330Z,3368.00
2018-07-12T04:30:52.334Z,3416.00
2018-07-12T04:31:52.329Z,3472.00
2018-07-12T04:32:52.335Z,3520.00
2018-07-12T04:33:52.318Z,3568.00
2018-07-12T04:34:52.314Z,3612.00
2018-07-12T04:35:52.320Z,3660.00
2018-07-12T04:36:52.312Z,3708.00
2018-07-12T04:37:52.387Z,3752.00
2018-07-12T04:38:52.326Z,3796.00
2018-07-12T04:39:52.310Z,3844.00
2018-07-12T04:40:52.304Z,3896.00
2018-07-12T04:41:52.292Z,3940.00
2018-07-12T04:42:52.292Z,3988.00
2018-07-12T04:43:52.357Z,4040.00
2018-07-12T04:44:52.406Z,4088.00
2018-07-12T04:45:52.304Z,4144.00
2018-07-12T04:46:53.116Z,4192.00
2018-07-12T04:47:53.115Z,4240.00
2018-07-12T04:48:52.271Z,4288.00
2018-07-12T04:49:52.268Z,4332.00
2018-07-12T04:50:52.280Z,4380.00
2018-07-12T04:51:52.265Z,4420.00
2018-07-12T04:52:52.280Z,4464.00
2018-07-12T04:53:52.256Z,4500.00
2018-07-12T04:54:52.251Z,4524.00
2018-07-12T04:55:52.248Z,4564.00
2018-07-12T04:56:52.268Z,4604.00
2018-07-12T04:57:52.244Z,4648.00
2018-07-12T04:58:52.241Z,4692.00
2018-07-12T04:59:52.241Z,4736.00
2018-07-12T05:00:52.235Z,4780.00
2018-07-12T05:01:52.251Z,4824.00
2018-07-12T05:02:52.237Z,4868.00
2018-07-12T05:03:52.261Z,4920.00
2018-07-12T05:04:52.246Z,4964.00
2018-07-12T05:05:52.221Z,5012.00
2018-07-12T05:06:52.217Z,5060.00
2018-07-12T05:07:52.216Z,5104.00
2018-07-12T05:08:53.266Z,5152.00
2018-07-12T05:09:53.185Z,5196.00
2018-07-12T05:10:52.253Z,5248.00
2018-07-12T05:11:52.216Z,5288.00
2018-07-12T05:12:52.205Z,5336.00
2018-07-12T05:13:52.201Z,5380.00
2018-07-12T05:14:52.197Z,5428.00
2018-07-12T05:15:52.196Z,5472.00
2018-07-12T05:16:52.196Z,5512.00
2018-07-12T05:17:52.188Z,5556.00
2018-07-12T05:18:52.211Z,5608.00
2018-07-12T05:19:52.264Z,5648.00
2018-07-12T05:20:52.181Z,5692.00
2018-07-12T05:21:52.227Z,5736.00
2018-07-12T05:22:52.176Z,5776.00
2018-07-12T05:23:52.168Z,5816.00
2018-07-12T05:24:52.167Z,5864.00
2018-07-12T05:25:52.172Z,5912.00
2018-07-12T05:26:52.172Z,5960.00
2018-07-12T05:27:52.173Z,5996.00
2018-07-12T05:28:52.186Z,6044.00
2018-07-12T05:29:52.166Z,6088.00
2018-07-12T05:30:52.205Z,6128.00
2018-07-12T05:31:52.160Z,6168.00
2018-07-12T05:32:52.167Z,6208.00
2018-07-12T05:33:52.155Z,6248.00
2018-07-12T05:34:52.154Z,6284.00
2018-07-12T05:35:52.160Z,6320.00
2018-07-12T05:36:52.150Z,6360.00
2018-07-12T05:37:52.150Z,6392.00
2018-07-12T05:38:52.156Z,6436.00
2018-07-12T05:39:52.148Z,6472.00
2018-07-12T05:40:52.142Z,6508.00
2018-07-12T05:41:52.141Z,6548.00
2018-07-12T05:42:52.136Z,7196.00
2018-07-12T05:43:52.137Z,7232.00
2018-07-12T05:44:52.201Z,7272.00
2018-07-12T05:45:52.141Z,7304.00
2018-07-12T05:46:52.164Z,7352.00
2018-07-12T05:47:52.126Z,7396.00
2018-07-12T05:48:52.127Z,7444.00
2018-07-12T05:49:52.126Z,7480.00
2018-07-12T05:50:52.120Z,7528.00
2018-07-12T05:51:52.133Z,7576.00
2018-07-12T05:52:52.128Z,7612.00
2018-07-12T05:53:52.109Z,7644.00
2018-07-12T05:54:52.127Z,7684.00
2018-07-12T05:55:52.117Z,7728.00
2018-07-12T05:56:52.120Z,7776.00
2018-07-12T05:57:52.113Z,7820.00
2018-07-12T05:58:52.112Z,7860.00
2018-07-12T05:59:52.109Z,7904.00
2018-07-12T06:00:52.108Z,7948.00
2018-07-12T06:01:52.113Z,7992.00
2018-07-12T06:02:52.141Z,8024.00
2018-07-12T06:03:52.104Z,8076.00
2018-07-12T06:04:52.103Z,8116.00
2018-07-12T06:05:52.119Z,8152.00
2018-07-12T06:06:52.108Z,8184.00
2018-07-12T06:07:52.102Z,8216.00
2018-07-12T06:08:52.111Z,8244.00
2018-07-12T06:09:52.097Z,8272.00
2018-07-12T06:10:52.097Z,8304.00
2018-07-12T06:11:52.098Z,8332.00
2018-07-12T06:12:52.096Z,8356.00
2018-07-12T06:13:52.089Z,8392.00
2018-07-12T06:14:52.096Z,8424.00
2018-07-12T06:15:52.091Z,8460.00
2018-07-12T06:16:52.094Z,8496.00
2018-07-12T06:17:52.087Z,8528.00
2018-07-12T06:18:52.152Z,8564.00
2018-07-12T06:19:52.091Z,8588.00
2018-07-12T06:20:52.089Z,8608.00
2018-07-12T06:21:52.093Z,8620.00
2018-07-12T06:22:52.133Z,8632.00
2018-07-12T06:23:52.089Z,8636.00
2018-07-12T06:24:52.084Z,8636.00
2018-07-12T06:25:52.093Z,8636.00
2018-07-12T06:26:52.087Z,8628.00
2018-07-12T06:27:52.086Z,8616.00
2018-07-12T06:28:52.087Z,8608.00
2018-07-12T06:29:52.133Z,8620.00
2018-07-12T06:30:52.081Z,8640.00
2018-07-12T06:31:52.077Z,8676.00
2018-07-12T06:32:52.102Z,8708.00
2018-07-12T06:33:52.085Z,8744.00
2018-07-12T06:34:52.079Z,8780.00
2018-07-12T06:35:52.079Z,8824.00
2018-07-12T06:36:52.079Z,8844.00
2018-07-12T06:37:52.076Z,8860.00
2018-07-12T06:38:52.081Z,8872.00
2018-07-12T06:39:52.085Z,8876.00
2018-07-12T06:40:52.080Z,8884.00
2018-07-12T06:41:52.089Z,8892.00
2018-07-12T06:42:52.075Z,8904.00
2018-07-12T06:43:52.083Z,8916.00
2018-07-12T06:44:52.078Z,8932.00
2018-07-12T06:45:52.075Z,8956.00
2018-07-12T06:46:52.077Z,8972.00
2018-07-12T06:47:52.081Z,8988.00
2018-07-12T06:48:52.074Z,9004.00
2018-07-12T06:49:52.249Z,9020.00
2018-07-12T06:50:52.076Z,9024.00
2018-07-12T06:51:52.092Z,9028.00
2018-07-12T06:52:52.134Z,9028.00
2018-07-12T06:53:52.070Z,9044.00
2018-07-12T06:54:52.077Z,9048.00
2018-07-12T06:55:52.084Z,9048.00
2018-07-12T06:56:52.078Z,9040.00
2018-07-12T06:57:52.076Z,9032.00
2018-07-12T06:58:52.079Z,9024.00
2018-07-12T06:59:52.084Z,9024.00
2018-07-12T07:00:52.080Z,9032.00
2018-07-12T07:01:52.087Z,9044.00
2018-07-12T07:02:52.076Z,9060.00
2018-07-12T07:03:52.081Z,9068.00
2018-07-12T07:04:52.087Z,9080.00
2018-07-12T07:05:52.112Z,9240.00
2018-07-12T07:06:52.104Z,9716.00
2018-07-12T07:07:52.089Z,10580.00
2018-07-12T07:08:52.149Z,16128.00
2018-07-12T07:09:52.176Z,37120.00
2018-07-12T07:10:52.205Z,53568.00
2018-07-12T07:11:52.230Z,56000.00
2018-07-12T07:12:52.093Z,58784.00
2018-07-12T07:13:52.099Z,62880.00
2018-07-12T07:14:52.105Z,61824.00
2018-07-12T07:15:52.103Z,63232.00
2018-07-12T07:16:52.104Z,64160.00
2018-07-12T07:17:52.113Z,65760.00
2018-07-12T07:18:52.121Z,62496.00
2018-07-12T07:19:52.128Z,61792.00
2018-07-12T07:20:52.132Z,62080.00
2018-07-12T07:21:52.139Z,64352.00
2018-07-12T07:22:52.150Z,62720.00
2018-07-12T07:23:52.187Z,60768.00
2018-07-12T07:24:52.163Z,67424.00
2018-07-12T07:25:52.187Z,69952.00
2018-07-12T07:26:52.190Z,67360.00
2018-07-12T07:27:52.198Z,69664.00
2018-07-12T07:28:52.209Z,66720.00
2018-07-12T07:29:52.226Z,71648.00
2018-07-12T07:30:52.225Z,74304.00
2018-07-12T07:31:52.242Z,66496.00
2018-07-12T07:32:52.247Z,65472.00
2018-07-12T07:33:52.266Z,73088.00
2018-07-12T07:34:52.273Z,80864.00
2018-07-12T07:35:52.277Z,78912.00
2018-07-12T07:36:52.316Z,76704.00
2018-07-12T07:37:52.313Z,73728.00
2018-07-12T07:38:52.322Z,76672.00
2018-07-12T07:39:52.338Z,77248.00
2018-07-12T07:40:52.353Z,73248.00
2018-07-12T07:41:52.359Z,80128.00
2018-07-12T07:42:52.438Z,80736.00
2018-07-12T07:43:52.393Z,70112.00
2018-07-12T07:44:52.402Z,68000.00
2018-07-12T07:45:52.417Z,79360.00
2018-07-12T07:46:52.439Z,84736.00
2018-07-12T07:47:52.469Z,76896.00
2018-07-12T07:48:52.465Z,79232.00
2018-07-12T07:49:52.478Z,86240.00
2018-07-12T07:50:52.491Z,79072.00
2018-07-12T07:51:52.523Z,73632.00
2018-07-12T07:52:52.525Z,79744.00
2018-07-12T07:53:52.545Z,89824.00
2018-07-12T07:54:52.555Z,85248.00
2018-07-12T07:55:52.566Z,74624.00
2018-07-12T07:56:52.577Z,75744.00
2018-07-12T07:57:52.603Z,85344.00
2018-07-12T07:58:52.621Z,82880.00
2018-07-12T07:59:52.632Z,81664.00
2018-07-12T08:00:52.655Z,86208.00
2018-07-12T08:01:52.664Z,85600.00
2018-07-12T08:02:52.685Z,84000.00
2018-07-12T08:03:52.699Z,84416.00
2018-07-12T08:04:52.727Z,85984.00
2018-07-12T08:05:52.731Z,82624.00
2018-07-12T08:06:52.772Z,77536.00
2018-07-12T08:07:52.761Z,81536.00
2018-07-12T08:08:52.936Z,85344.00
2018-07-12T08:09:52.802Z,83808.00
2018-07-12T08:10:52.807Z,81600.00
2018-07-12T08:11:52.830Z,77568.00
2018-07-12T08:12:52.849Z,78624.00
2018-07-12T08:13:52.871Z,90784.00
2018-07-12T08:14:52.886Z,88992.00
2018-07-12T08:15:52.928Z,74592.00
2018-07-12T08:16:52.918Z,74304.00
2018-07-12T08:17:52.934Z,82784.00
2018-07-12T08:18:52.996Z,87392.00
2018-07-12T08:19:52.981Z,84864.00
2018-07-12T08:20:52.987Z,85696.00
2018-07-12T08:21:53.018Z,85568.00
2018-07-12T08:22:53.027Z,86976.00
2018-07-12T08:23:53.040Z,79840.00
2018-07-12T08:24:53.077Z,78880.00
2018-07-12T08:25:53.090Z,80544.00
2018-07-12T08:26:53.096Z,84608.00
2018-07-12T08:27:53.121Z,86080.00
2018-07-12T08:28:53.158Z,86912.00
2018-07-12T08:29:53.168Z,82560.00
2018-07-12T08:30:53.183Z,80480.00
2018-07-12T08:31:53.189Z,88480.00
2018-07-12T08:32:53.201Z,81984.00
2018-07-12T08:33:53.214Z,79424.00
2018-07-12T08:34:53.255Z,82400.00
2018-07-12T08:35:53.261Z,78752.00
2018-07-12T08:36:53.333Z,76224.00
2018-07-12T08:37:53.293Z,79744.00
2018-07-12T08:38:53.314Z,85568.00
2018-07-12T08:39:53.343Z,85696.00
2018-07-12T08:40:53.360Z,84352.00
2018-07-12T08:41:53.369Z,87584.00
2018-07-12T08:42:53.393Z,83712.00
2018-07-12T08:43:53.406Z,80192.00
2018-07-12T08:44:53.431Z,84224.00
2018-07-12T08:45:53.432Z,82464.00
2018-07-12T08:46:53.465Z,86304.00
2018-07-12T08:47:53.479Z,88864.00
2018-07-12T08:48:53.499Z,87680.00
2018-07-12T08:49:53.521Z,87904.00
2018-07-12T08:50:53.551Z,91904.00
2018-07-12T08:51:53.571Z,95904.00
2018-07-12T08:52:53.576Z,98816.00
2018-07-12T08:53:53.584Z,105184.00
2018-07-12T08:54:53.615Z,105056.00
2018-07-12T08:55:53.652Z,102752.00
2018-07-12T08:56:53.649Z,108672.00
2018-07-12T08:57:53.666Z,111264.00
2018-07-12T08:58:53.693Z,105664.00
2018-07-12T08:59:53.716Z,112672.00
2018-07-12T09:00:53.724Z,112416.00
2018-07-12T09:01:53.748Z,103968.00
2018-07-12T09:02:53.942Z,94368.00
2018-07-12T09:03:53.796Z,95232.00
2018-07-12T09:04:53.805Z,98112.00
2018-07-12T09:05:53.913Z,92672.00
2018-07-12T09:06:53.843Z,97184.00
2018-07-12T09:07:53.865Z,93856.00
2018-07-12T09:08:53.884Z,89056.00
2018-07-12T09:09:53.905Z,86944.00
2018-07-12T09:10:53.915Z,86464.00
2018-07-12T09:11:53.949Z,91264.00
2018-07-12T09:12:53.960Z,91520.00
2018-07-12T09:13:53.996Z,95488.00
2018-07-12T09:14:54.003Z,98400.00
2018-07-12T09:15:54.025Z,98688.00
2018-07-12T09:16:54.040Z,95168.00
2018-07-12T09:17:54.061Z,89600.00
2018-07-12T09:18:54.078Z,92704.00
2018-07-12T09:19:54.101Z,96576.00
2018-07-12T09:20:54.128Z,97888.00
2018-07-12T09:21:54.139Z,99584.00
2018-07-12T09:22:54.159Z,97120.00
2018-07-12T09:23:54.193Z,98336.00
2018-07-12T09:24:54.197Z,99840.00
2018-07-12T09:25:54.214Z,97536.00
2018-07-12T09:26:54.236Z,102080.00
2018-07-12T09:27:54.247Z,99008.00
2018-07-12T09:28:54.288Z,95584.00
2018-07-12T09:29:54.287Z,93920.00
2018-07-12T09:30:54.350Z,90528.00
2018-07-12T09:31:54.323Z,89920.00
2018-07-12T09:32:54.342Z,82656.00
2018-07-12T09:33:54.361Z,78272.00
2018-07-12T09:34:54.397Z,81984.00
2018-07-12T09:35:54.400Z,80192.00
2018-07-12T09:36:54.472Z,78528.00
2018-07-12T09:37:54.437Z,77056.00
2018-07-12T09:38:54.464Z,78528.00
2018-07-12T09:39:54.495Z,77600.00
2018-07-12T09:40:54.492Z,73536.00
2018-07-12T09:41:54.530Z,71232.00
2018-07-12T09:42:54.546Z,73024.00
2018-07-12T09:43:54.550Z,71200.00
2018-07-12T09:44:54.570Z,68672.00
2018-07-12T09:45:54.591Z,66112.00
2018-07-12T09:46:54.611Z,70432.00
2018-07-12T09:47:54.629Z,74560.00
2018-07-12T09:48:54.687Z,78144.00
2018-07-12T09:49:54.823Z,74176.00
2018-07-12T09:50:54.684Z,76288.00
2018-07-12T09:51:54.707Z,79232.00
2018-07-12T09:52:54.747Z,74112.00
2018-07-12T09:53:54.761Z,69696.00
2018-07-12T09:54:54.765Z,77824.00
2018-07-12T09:55:54.815Z,80352.00
2018-07-12T09:56:54.798Z,78496.00
2018-07-12T09:57:54.817Z,79456.00
2018-07-12T09:58:54.847Z,77696.00
2018-07-12T09:59:54.933Z,80128.00
2018-07-12T10:00:54.878Z,85088.00
2018-07-12T10:01:54.886Z,77248.00
2018-07-12T10:02:54.911Z,77056.00
2018-07-12T10:03:54.937Z,83776.00
2018-07-12T10:04:54.952Z,86016.00
2018-07-12T10:05:54.971Z,83936.00
2018-07-12T10:06:54.997Z,79712.00
2018-07-12T10:07:55.010Z,86240.00
2018-07-12T10:08:55.049Z,86784.00
2018-07-12T10:09:55.056Z,89376.00
2018-07-12T10:10:55.059Z,94752.00
2018-07-12T10:11:55.081Z,90912.00
2018-07-12T10:12:55.104Z,87232.00
2018-07-12T10:13:55.114Z,85152.00
2018-07-12T10:14:55.141Z,81120.00
2018-07-12T10:15:55.169Z,81696.00
2018-07-12T10:16:55.179Z,87968.00
2018-07-12T10:17:55.200Z,90912.00
2018-07-12T10:18:55.235Z,90976.00
2018-07-12T10:19:55.265Z,94368.00
2018-07-12T10:20:55.249Z,93344.00
2018-07-12T10:21:55.265Z,96736.00
2018-07-12T10:22:55.285Z,100224.00
2018-07-12T10:23:55.304Z,96160.00
2018-07-12T10:24:55.336Z,97312.00
2018-07-12T10:25:55.345Z,100992.00
2018-07-12T10:26:55.370Z,95424.00
2018-07-12T10:27:55.392Z,88480.00
2018-07-12T10:28:55.398Z,92928.00
2018-07-12T10:29:55.497Z,96736.00
2018-07-12T10:30:55.446Z,95776.00
2018-07-12T10:31:55.471Z,102400.00
2018-07-12T10:32:55.483Z,104640.00
2018-07-12T10:33:55.510Z,97152.00
2018-07-12T10:34:55.527Z,96416.00
2018-07-12T10:35:55.544Z,108064.00
2018-07-12T10:36:55.561Z,70464.00
2018-07-12T10:37:55.580Z,93504.00
2018-07-12T10:38:55.629Z,49920.00
2018-07-12T10:39:55.630Z,76352.00
2018-07-12T10:40:55.650Z,96064.00
2018-07-12T10:41:55.705Z,96288.00
2018-07-12T10:42:55.755Z,96384.00
2018-07-12T10:43:55.721Z,100352.00
2018-07-12T10:44:55.723Z,104032.00
2018-07-12T10:45:55.737Z,103776.00
2018-07-12T10:46:55.832Z,101568.00
2018-07-12T10:47:55.803Z,28992.00
2018-07-12T10:48:55.881Z,23808.00
2018-07-12T10:49:55.846Z,23168.00
2018-07-12T10:50:55.840Z,23776.00
2018-07-12T10:51:55.854Z,96576.00
2018-07-12T10:52:55.875Z,113344.00
2018-07-12T10:53:55.897Z,106464.00
2018-07-12T10:54:55.920Z,104288.00
2018-07-12T10:55:55.936Z,107136.00
2018-07-12T10:56:55.950Z,106976.00
2018-07-12T10:57:55.966Z,94432.00
2018-07-12T10:58:56.020Z,88544.00
2018-07-12T10:59:56.004Z,99360.00
2018-07-12T11:00:56.035Z,100320.00
2018-07-12T11:01:56.033Z,97856.00
2018-07-12T11:02:56.050Z,103488.00
2018-07-12T11:03:58.947Z,104800.00
2018-07-12T11:04:56.123Z,99744.00
2018-07-12T11:05:56.171Z,103104.00
2018-07-12T11:06:56.138Z,65056.00
2018-07-12T11:07:56.225Z,107424.00
2018-07-12T11:08:56.171Z,110080.00
2018-07-12T11:09:56.194Z,107232.00
2018-07-12T11:10:56.225Z,104608.00
2018-07-12T11:11:56.229Z,75808.00
2018-07-12T11:12:57.847Z,108288.00
2018-07-12T11:13:56.278Z,114784.00
2018-07-12T11:14:56.296Z,114432.00
2018-07-12T11:15:56.313Z,104768.00
2018-07-12T11:16:56.394Z,97856.00
2018-07-12T11:17:56.362Z,98784.00
2018-07-12T11:18:56.365Z,28704.00
2018-07-12T11:19:56.399Z,55136.00
2018-07-12T11:20:56.409Z,79456.00
2018-07-12T11:21:56.431Z,22912.00
2018-07-12T11:22:56.468Z,21120.00
2018-07-12T11:23:56.497Z,21472.00
2018-07-12T11:24:56.485Z,22368.00
2018-07-12T11:25:56.517Z,21536.00
2018-07-12T11:26:56.526Z,20832.00
2018-07-12T11:27:56.590Z,20800.00
2018-07-12T11:28:56.624Z,20864.00
2018-07-12T11:29:56.564Z,21728.00
2018-07-12T11:30:56.675Z,22688.00
2018-07-12T11:31:56.593Z,23776.00
2018-07-12T11:32:56.613Z,24896.00
2018-07-12T11:33:56.685Z,25344.00
2018-07-12T11:34:56.631Z,24736.00
2018-07-12T11:35:56.757Z,23552.00
2018-07-12T11:36:56.757Z,21600.00
2018-07-12T11:37:56.658Z,21216.00
2018-07-12T11:38:56.676Z,22208.00
2018-07-12T11:39:56.698Z,22848.00
2018-07-12T11:40:56.701Z,22688.00
2018-07-12T11:41:56.712Z,22112.00
2018-07-12T11:42:56.720Z,22848.00
2018-07-12T11:43:56.737Z,23968.00
2018-07-12T11:44:56.735Z,33280.00
2018-07-12T11:45:56.740Z,28672.00
2018-07-12T11:46:56.749Z,36288.00
2018-07-12T11:47:56.768Z,31488.00
2018-07-12T11:48:56.762Z,64480.00
2018-07-12T11:49:56.776Z,100736.00
2018-07-12T11:50:56.964Z,98528.00
2018-07-12T11:51:56.799Z,95552.00
2018-07-12T11:52:56.858Z,92128.00
2018-07-12T11:53:56.813Z,92448.00
2018-07-12T11:54:56.837Z,93600.00
2018-07-12T11:55:56.842Z,90816.00
2018-07-12T11:56:56.850Z,90016.00
2018-07-12T11:57:56.855Z,89600.00
2018-07-12T11:58:56.888Z,90400.00
2018-07-12T11:59:56.893Z,94656.00
2018-07-12T12:00:56.912Z,27264.00
2018-07-12T12:01:56.962Z,26016.00
2018-07-12T12:02:56.932Z,24384.00
2018-07-12T12:03:56.949Z,21088.00
2018-07-12T12:04:56.961Z,19712.00
2018-07-12T12:05:56.984Z,18208.00
2018-07-12T12:06:57.037Z,17272.00
2018-07-12T12:07:57.024Z,16704.00
2018-07-12T12:08:57.011Z,16684.00
2018-07-12T12:09:57.038Z,17116.00
2018-07-12T12:10:57.054Z,18272.00
2018-07-12T12:11:57.066Z,19200.00
2018-07-12T12:12:57.081Z,21120.00
2018-07-12T12:13:57.234Z,23968.00
2018-07-12T12:14:57.262Z,43712.00
2018-07-12T12:15:57.092Z,90048.00
2018-07-12T12:16:57.098Z,90336.00
2018-07-12T12:17:57.113Z,81696.00
2018-07-12T12:18:57.122Z,36800.00
2018-07-12T12:19:57.131Z,72032.00
2018-07-12T12:20:57.137Z,87040.00
2018-07-12T12:21:57.149Z,85696.00
2018-07-12T12:22:57.157Z,88512.00
2018-07-12T12:23:57.165Z,89824.00
2018-07-12T12:24:57.180Z,89216.00
2018-07-12T12:25:57.194Z,90976.00
2018-07-12T12:26:57.225Z,94240.00
2018-07-12T12:27:57.215Z,98880.00
2018-07-12T12:28:57.378Z,97632.00
2018-07-12T12:29:57.247Z,96864.00
2018-07-12T12:30:57.408Z,97824.00
2018-07-12T12:31:57.274Z,98080.00
2018-07-12T12:32:57.287Z,97632.00
2018-07-12T12:33:57.342Z,93504.00
2018-07-12T12:34:57.362Z,98592.00
2018-07-12T12:35:57.332Z,101856.00
2018-07-12T12:36:57.408Z,102976.00
2018-07-12T12:37:57.389Z,87456.00
2018-07-12T12:38:57.443Z,14608.00
2018-07-12T12:39:57.417Z,90528.00
2018-07-12T12:40:57.442Z,44448.00
2018-07-12T12:41:57.734Z,21088.00
2018-07-12T12:42:57.475Z,22208.00
2018-07-12T12:43:57.459Z,23456.00
2018-07-12T12:44:57.508Z,23360.00
2018-07-12T12:45:57.505Z,23168.00
2018-07-12T12:46:57.516Z,22368.00